Time,TemperatureF,DewpointF,PressureIn,WindDirection,WindDirectionDegrees,WindSpeedMPH,WindSpeedGustMPH,Humidity,HourlyPrecipIn,Conditions,Clouds,dailyrainin,SoftwareType,DateUTC
2013-05-15 09:26:00,52.0,43.0,-100.00,North,-999,0.0,0.0,70,-99.99,,,-99.99,,2013-05-15 16:26:00,
2013-05-15 09:34:00,52.0,42.0,-100.00,North,-999,0.0,0.0,68,-99.99,,,-99.99,,2013-05-15 16:34:00,
2013-05-15 09:46:00,51.0,42.0,-100.00,North,-999,0.0,0.0,70,-99.99,,,-99.99,,2013-05-15 16:46:00,
2013-05-15 09:53:00,52.0,42.0,-100.00,North,-999,0.0,0.0,69,-99.99,,,-99.99,,2013-05-15 16:53:00,
2013-05-15 10:05:00,52.0,43.0,-100.00,North,-999,0.0,0.0,70,-99.99,,,-99.99,,2013-05-15 17:05:00,
2013-05-15 10:58:00,60.0,25.0,-100.00,NW,316,3.0,5.0,26,-99.99,,,-99.99,,2013-05-15 17:58:00,
2013-05-15 11:04:00,60.0,24.0,-100.00,WNW,299,5.0,8.0,25,-99.99,,,-99.99,,2013-05-15 18:04:00,
2013-05-15 11:13:00,60.0,23.0,-100.00,WNW,289,5.0,9.0,24,-99.99,,,-99.99,,2013-05-15 18:13:00,
2013-05-15 11:25:00,61.0,24.0,-100.00,WNW,284,5.0,8.0,24,-99.99,,,-99.99,,2013-05-15 18:25:00,
2013-05-15 11:35:00,61.0,24.0,-100.00,West,275,7.0,13.0,24,-99.99,,,-99.99,,2013-05-15 18:35:00,
2013-05-15 11:45:00,61.0,22.0,-100.00,West,275,5.0,9.0,22,-99.99,,,-99.99,,2013-05-15 18:45:00,
2013-05-15 11:54:00,62.0,19.0,-100.00,West,264,4.0,7.0,19,-99.99,,,-99.99,,2013-05-15 18:54:00,
2013-05-15 12:06:00,63.0,20.0,-100.00,West,267,4.0,9.0,19,-99.99,,,-99.99,,2013-05-15 19:06:00,
2013-05-15 12:13:00,63.0,20.0,-100.00,West,267,4.0,9.0,19,-99.99,,,-99.99,,2013-05-15 19:13:00,
2013-05-15 12:26:00,64.0,23.0,-100.00,WNW,298,3.0,10.0,21,-99.99,,,-99.99,,2013-05-15 19:26:00,
2013-05-15 12:35:00,63.0,24.0,-100.00,West,260,5.0,11.0,22,-99.99,,,-99.99,,2013-05-15 19:35:00,
2013-05-15 12:54:00,64.0,26.0,-100.00,West,278,6.0,16.0,24,-99.99,,,-99.99,,2013-05-15 19:54:00,
2013-05-15 13:04:00,64.0,26.0,-100.00,West,278,6.0,16.0,24,-99.99,,,-99.99,,2013-05-15 20:04:00,
2013-05-15 13:13:00,63.0,24.0,-100.00,WSW,243,10.0,17.0,23,-99.99,,,-99.99,,2013-05-15 20:13:00,
2013-05-15 13:34:00,61.0,24.0,-100.00,WSW,250,12.0,21.0,24,-99.99,,,-99.99,,2013-05-15 20:34:00,
2013-05-15 13:44:00,61.0,21.0,-100.00,WSW,241,9.0,18.0,21,-99.99,,,-99.99,,2013-05-15 20:44:00,
2013-05-15 13:52:00,61.0,23.0,-100.00,WSW,243,11.0,18.0,23,-99.99,,,-99.99,,2013-05-15 20:52:00,
2013-05-15 14:26:00,62.0,28.0,-100.00,WSW,257,10.0,20.0,27,-99.99,,,-99.99,,2013-05-15 21:26:00,
2013-05-15 14:38:00,62.0,26.0,-100.00,WSW,247,12.0,22.0,25,-99.99,,,-99.99,,2013-05-15 21:38:00,
2013-05-15 14:55:00,64.0,25.0,-100.00,West,260,10.0,21.0,23,-99.99,,,-99.99,,2013-05-15 21:55:00,
2013-05-15 15:07:00,64.0,29.0,-100.00,West,270,7.0,16.0,27,-99.99,,,-99.99,,2013-05-15 22:07:00,
2013-05-15 15:15:00,62.0,28.0,-100.00,WSW,258,8.0,17.0,27,-99.99,,,-99.99,,2013-05-15 22:15:00,
2013-05-15 15:27:00,62.0,27.0,-100.00,West,263,7.0,16.0,26,-99.99,,,-99.99,,2013-05-15 22:27:00,
2013-05-15 15:35:00,62.0,26.0,-100.00,WSW,248,9.0,18.0,25,-99.99,,,-99.99,,2013-05-15 22:35:00,
2013-05-15 15:46:00,63.0,27.0,-100.00,West,261,9.0,19.0,25,-99.99,,,-99.99,,2013-05-15 22:46:00,
2013-05-15 15:53:00,63.0,25.0,-100.00,WSW,239,13.0,22.0,23,-99.99,,,-99.99,,2013-05-15 22:53:00,
2013-05-15 16:05:00,63.0,22.0,-100.00,WSW,244,13.0,25.0,21,-99.99,,,-99.99,,2013-05-15 23:05:00,
2013-05-15 16:13:00,63.0,24.0,-100.00,West,265,9.0,17.0,22,-99.99,,,-99.99,,2013-05-15 23:13:00,
2013-05-15 16:25:00,64.0,27.0,-100.00,West,267,9.0,21.0,25,-99.99,,,-99.99,,2013-05-15 23:25:00,
2013-05-15 16:36:00,64.0,28.0,-100.00,West,261,9.0,19.0,26,-99.99,,,-99.99,,2013-05-15 23:36:00,
2013-05-15 16:53:00,64.0,30.0,-100.00,WSW,257,9.0,20.0,28,-99.99,,,-99.99,,2013-05-15 23:53:00,
2013-05-15 17:03:00,64.0,30.0,-100.00,WSW,257,9.0,20.0,28,-99.99,,,-99.99,,2013-05-16 00:03:00,
2013-05-15 17:16:00,63.0,32.0,-100.00,WNW,288,5.0,15.0,31,-99.99,,,-99.99,,2013-05-16 00:16:00,
2013-05-15 17:23:00,63.0,32.0,-100.00,West,275,6.0,12.0,31,-99.99,,,-99.99,,2013-05-16 00:23:00,
2013-05-15 17:57:00,61.0,32.0,-100.00,West,277,6.0,14.0,34,-99.99,,,-99.99,,2013-05-16 00:57:00,
2013-05-15 18:05:00,61.0,29.0,-100.00,West,281,5.0,11.0,30,-99.99,,,-99.99,,2013-05-16 01:05:00,
2013-05-15 18:14:00,61.0,29.0,-100.00,WNW,282,5.0,11.0,30,-99.99,,,-99.99,,2013-05-16 01:14:00,
2013-05-15 18:25:00,60.0,29.0,-100.00,WNW,284,5.0,13.0,31,-99.99,,,-99.99,,2013-05-16 01:25:00,
2013-05-15 18:34:00,61.0,29.0,-100.00,WNW,295,4.0,16.0,29,-99.99,,,-99.99,,2013-05-16 01:34:00,
2013-05-15 18:45:00,61.0,33.0,-100.00,WNW,296,3.0,5.0,35,-99.99,,,-99.99,,2013-05-16 01:45:00,
2013-05-15 18:54:00,61.0,31.0,-100.00,WNW,294,3.0,7.0,32,-99.99,,,-99.99,,2013-05-16 01:54:00,
2013-05-15 19:13:00,60.0,30.0,-100.00,WNW,282,4.0,11.0,32,-99.99,,,-99.99,,2013-05-16 02:13:00,
2013-05-15 19:26:00,60.0,29.0,-100.00,West,261,6.0,13.0,31,-99.99,,,-99.99,,2013-05-16 02:26:00,
2013-05-15 19:36:00,58.0,33.0,-100.00,West,271,5.0,11.0,38,-99.99,,,-99.99,,2013-05-16 02:36:00,
2013-05-15 19:44:00,58.0,33.0,-100.00,West,271,5.0,11.0,38,-99.99,,,-99.99,,2013-05-16 02:44:00,
2013-05-15 19:52:00,58.0,33.0,-100.00,West,271,5.0,11.0,38,-99.99,,,-99.99,,2013-05-16 02:52:00,
2013-05-15 20:03:00,57.0,34.0,-100.00,WNW,282,5.0,7.0,42,-99.99,,,-99.99,,2013-05-16 03:03:00,
2013-05-15 20:14:00,56.0,31.0,-100.00,WNW,282,4.0,6.0,39,-99.99,,,-99.99,,2013-05-16 03:14:00,
2013-05-15 20:24:00,56.0,34.0,-100.00,WNW,282,4.0,6.0,44,-99.99,,,-99.99,,2013-05-16 03:24:00,
2013-05-15 20:33:00,56.0,34.0,-100.00,WNW,282,4.0,6.0,44,-99.99,,,-99.99,,2013-05-16 03:33:00,
2013-05-15 21:02:00,55.0,34.0,-100.00,West,275,4.0,8.0,45,-99.99,,,-99.99,,2013-05-16 04:02:00,
2013-05-15 21:12:00,54.0,35.0,-100.00,West,274,3.0,5.0,48,-99.99,,,-99.99,,2013-05-16 04:12:00,
2013-05-15 21:23:00,53.0,34.0,-100.00,West,263,2.0,6.0,49,-99.99,,,-99.99,,2013-05-16 04:23:00,
2013-05-15 21:33:00,53.0,33.0,-100.00,WSW,251,2.0,8.0,46,-99.99,,,-99.99,,2013-05-16 04:33:00,
2013-05-15 21:42:00,53.0,34.0,-100.00,WSW,244,2.0,6.0,49,-99.99,,,-99.99,,2013-05-16 04:42:00,
2013-05-15 21:52:00,52.0,33.0,-100.00,WSW,246,3.0,6.0,49,-99.99,,,-99.99,,2013-05-16 04:52:00,
2013-05-15 22:02:00,52.0,33.0,-100.00,WSW,237,3.0,5.0,48,-99.99,,,-99.99,,2013-05-16 05:02:00,
2013-05-15 22:12:00,50.0,35.0,-100.00,SW,223,2.0,5.0,56,-99.99,,,-99.99,,2013-05-16 05:12:00,
2013-05-15 22:22:00,50.0,34.0,-100.00,SW,224,0.0,3.0,55,-99.99,,,-99.99,,2013-05-16 05:22:00,
2013-05-15 22:32:00,48.0,34.0,-100.00,NW,323,1.0,2.0,58,-99.99,,,-99.99,,2013-05-16 05:32:00,
2013-05-15 22:42:00,48.0,34.0,-100.00,NW,323,1.0,2.0,58,-99.99,,,-99.99,,2013-05-16 05:42:00,
2013-05-15 22:52:00,48.0,34.0,-100.00,NW,323,1.0,2.0,58,-99.99,,,-99.99,,2013-05-16 05:52:00,
2013-05-15 23:01:00,48.0,34.0,-100.00,NW,323,1.0,2.0,58,-99.99,,,-99.99,,2013-05-16 06:01:00,
2013-05-15 23:12:00,48.0,34.0,-100.00,NW,323,1.0,2.0,58,-99.99,,,-99.99,,2013-05-16 06:12:00,